^^
Meteo Knjazevac Station Historical Data
Daily Summary for January 25, 2022 Units:  Metric    English   Both
Daily Weekly Monthly Yearly Custom
  High: Low: Average:
Temperature: 10.1 °C 0.9 °C 6.1 °C
Dew Point: 6.6 °C 0.7 °C 4.4 °C
Humidity: 99% 78.8% 89%
Wind Speed: 25.9km/h 1.6km/h 11.1km/h
Wind Gust: 32.2km/h - -
Wind- - SW
Pressure: 1021.6 hPa 1015.1 hPa -
Precipitation: 0 mm    
Historical Graphs
 
 
Tabular Data for January 25, 2022
Time Temperature Dew Point Pressure Wind Wind Speed Wind Gust Humidity Rainfall Rate (Hourly) solar Conditions
00:04 6.9 °C 5.2 °C 1015.1 hPa WSW 9.5 km/h 11.3 km/h 88.7% 0 mm 0 W/m2
00:09 6.9 °C 5.1 °C 1015.1 hPa WSW 10.5 km/h 12.9 km/h 88.1% 0 mm 0 W/m2
00:14 6.9 °C 5.1 °C 1015.1 hPa WSW 8.5 km/h 11.3 km/h 88% 0 mm 0 W/m2
00:19 7 °C 5.2 °C 1015.1 hPa SW 14.6 km/h 16.1 km/h 88% 0 mm 0 W/m2
00:24 7 °C 5.2 °C 1015.1 hPa WSW 15.9 km/h 17.7 km/h 88% 0 mm 0 W/m2
00:29 7 °C 5.2 °C 1015.1 hPa WSW 15 km/h 17.7 km/h 88% 0 mm 0 W/m2
00:34 7 °C 5.2 °C 1015.1 hPa WSW 14.3 km/h 16.1 km/h 88.3% 0 mm 0 W/m2
00:39 7 °C 5.2 °C 1015.1 hPa SW 9.8 km/h 16.1 km/h 88.4% 0 mm 0 W/m2
00:44 6.9 °C 5.3 °C 1015.1 hPa SW 10.3 km/h 11.3 km/h 89% 0 mm 0 W/m2
00:49 6.9 °C 5.2 °C 1015.1 hPa SW 9.5 km/h 11.3 km/h 89% 0 mm 0 W/m2
00:54 6.9 °C 5.2 °C 1015.5 hPa SW 13.8 km/h 11.6 km/h 89% 0 mm 0 W/m2
00:59 6.8 °C 5.1 °C 1015.5 hPa WSW 13.8 km/h 17.7 km/h 89% 0 mm 0 W/m2
01:04 6.8 °C 5.2 °C 1015.5 hPa WSW 9.8 km/h 17.7 km/h 89.6% 0 mm 0 W/m2
01:09 6.7 °C 5.1 °C 1015.5 hPa WSW 8.9 km/h 11.3 km/h 89.6% 0 mm 0 W/m2
01:14 6.7 °C 5.1 °C 1015.5 hPa SW 5.5 km/h 11.3 km/h 90% 0 mm 0 W/m2
01:19 6.6 °C 5 °C 1015.1 hPa SW 5.8 km/h 6.4 km/h 90% 0 mm 0 W/m2
01:24 6.4 °C 4.9 °C 1015.1 hPa SW 6.6 km/h 8 km/h 90.2% 0 mm 0 W/m2
01:29 6.3 °C 5 °C 1015.1 hPa WSW 4.3 km/h 8 km/h 91% 0 mm 0 W/m2
01:34 6.3 °C 4.9 °C 1015.1 hPa West 5 km/h 4.8 km/h 91% 0 mm 0 W/m2
01:39 6.2 °C 4.8 °C 1015.1 hPa WSW 5.3 km/h 6.4 km/h 91% 0 mm 0 W/m2
01:44 6.2 °C 4.8 °C 1015.1 hPa WSW 6.4 km/h 6.4 km/h 91% 0 mm 0 W/m2
01:49 6.2 °C 4.8 °C 1015.5 hPa WSW 7.1 km/h 8 km/h 91% 0 mm 0 W/m2
01:54 6.2 °C 4.8 °C 1015.5 hPa WSW 6.1 km/h 9.7 km/h 91% 0 mm 0 W/m2
01:59 6.2 °C 4.8 °C 1015.5 hPa WSW 5.8 km/h 5.8 km/h 91% 0 mm 0 W/m2
02:04 6.2 °C 4.8 °C 1015.5 hPa WSW 6.8 km/h 8 km/h 91% 0 mm 0 W/m2
02:09 6.2 °C 4.8 °C 1015.5 hPa SW 7.9 km/h 8 km/h 91% 0 mm 0 W/m2
02:14 6.2 °C 4.9 °C 1015.5 hPa WSW 8.2 km/h 9.7 km/h 91.8% 0 mm 0 W/m2
02:19 6.2 °C 5.2 °C 1015.5 hPa WSW 8.7 km/h 9.7 km/h 93% 0 mm 0 W/m2
02:24 6.3 °C 5 °C 1015.5 hPa SW 14.5 km/h 11.9 km/h 91.7% 0 mm 0 W/m2
02:29 6.3 °C 5 °C 1015.5 hPa SW 15 km/h 19.3 km/h 91% 0 mm 0 W/m2
02:34 6.4 °C 5.1 °C 1015.5 hPa WSW 18.5 km/h 25.7 km/h 91% 0 mm 0 W/m2
02:39 6.5 °C 5.1 °C 1015.5 hPa WSW 18.3 km/h 19.3 km/h 90.5% 0 mm 0 W/m2
02:44 6.4 °C 4.9 °C 1015.5 hPa WSW 18.8 km/h 22.5 km/h 90% 0 mm 0 W/m2
02:49 6.4 °C 5.1 °C 1015.5 hPa WSW 15.1 km/h 22.5 km/h 90.8% 0 mm 0 W/m2
02:54 6.4 °C 5.1 °C 1015.5 hPa WSW 15.1 km/h 16.1 km/h 91% 0 mm 0 W/m2
02:59 6.3 °C 5 °C 1015.5 hPa WSW 15.1 km/h 16.1 km/h 91% 0 mm 0 W/m2
03:04 6.3 °C 4.9 °C 1015.5 hPa WSW 14.3 km/h 16.1 km/h 91% 0 mm 0 W/m2
03:09 6.3 °C 5 °C 1015.5 hPa WSW 15.9 km/h 16.1 km/h 91% 0 mm 0 W/m2
03:14 6.4 °C 5.1 °C 1015.5 hPa WSW 14.5 km/h 19.3 km/h 91% 0 mm 0 W/m2
03:19 6.4 °C 5.1 °C 1015.5 hPa WSW 13.7 km/h 14.5 km/h 91% 0 mm 0 W/m2
03:24 6.4 °C 5.1 °C 1015.5 hPa WSW 13.2 km/h 16.1 km/h 91% 0 mm 0 W/m2
03:29 6.5 °C 5.1 °C 1015.8 hPa WSW 15.3 km/h 14.5 km/h 91% 0 mm 0 W/m2
03:34 6.5 °C 5.1 °C 1015.8 hPa WSW 13.5 km/h 19.3 km/h 91% 0 mm 0 W/m2
03:39 6.5 °C 5.1 °C 1015.8 hPa WSW 9.7 km/h 12.9 km/h 91% 0 mm 0 W/m2
03:44 6.4 °C 5.1 °C 1015.8 hPa West 9.7 km/h 11.3 km/h 91% 0 mm 0 W/m2
03:49 6.4 °C 5.1 °C 1015.8 hPa WSW 11.1 km/h 9.7 km/h 91% 0 mm 0 W/m2
03:54 6.4 °C 5.1 °C 1015.8 hPa WSW 14 km/h 12.9 km/h 91% 0 mm 0 W/m2
03:59 6.4 °C 5.1 °C 1015.8 hPa WSW 13.8 km/h 14.5 km/h 91% 0 mm 0 W/m2
04:04 6.5 °C 5.1 °C 1015.8 hPa WSW 12.4 km/h 14.5 km/h 91% 0 mm 0 W/m2
04:09 6.5 °C 5.1 °C 1015.8 hPa WSW 9.5 km/h 12.9 km/h 91% 0 mm 0 W/m2
04:14 6.5 °C 5.1 °C 1016.1 hPa West 9.8 km/h 11.3 km/h 91% 0 mm 0 W/m2
04:19 6.5 °C 5.1 °C 1016.1 hPa West 12.7 km/h 14.5 km/h 91% 0 mm 0 W/m2
04:24 6.5 °C 5.1 °C 1016.1 hPa West 10 km/h 14.5 km/h 91% 0 mm 0 W/m2
04:29 6.5 °C 5.1 °C 1016.1 hPa West 14.8 km/h 12.9 km/h 91% 0 mm 0 W/m2
04:34 6.5 °C 5.1 °C 1016.1 hPa West 12.7 km/h 16.1 km/h 91% 0 mm 0 W/m2
04:39 6.5 °C 5.1 °C 1016.1 hPa West 11.1 km/h 12.9 km/h 91% 0 mm 0 W/m2
04:44 6.5 °C 5.1 °C 1016.1 hPa West 10.6 km/h 12.9 km/h 91% 0 mm 0 W/m2
04:49 6.4 °C 5.1 °C 1016.1 hPa West 12.9 km/h 12.9 km/h 91% 0 mm 0 W/m2
04:54 6.4 °C 5.1 °C 1016.1 hPa West 11.3 km/h 12.9 km/h 91% 0 mm 0 W/m2
04:59 6.3 °C 4.9 °C 1016.1 hPa WSW 15.3 km/h 12.9 km/h 90.8% 0 mm 0 W/m2
05:04 6.4 °C 4.8 °C 1016.1 hPa WSW 16.6 km/h 17.7 km/h 89.7% 0 mm 0 W/m2
05:09 6.5 °C 4.8 °C 1016.1 hPa WSW 17.5 km/h 19.3 km/h 89% 0 mm 0 W/m2
05:14 6.5 °C 4.8 °C 1016.1 hPa WSW 19.6 km/h 20.9 km/h 89% 0 mm 0 W/m2
05:19 6.5 °C 4.8 °C 1016.5 hPa WSW 14.5 km/h 20.9 km/h 89% 0 mm 0 W/m2
05:24 6.5 °C 4.7 °C 1016.5 hPa WSW 16.9 km/h 17.7 km/h 88.2% 0 mm 0 W/m2
05:29 6.5 °C 4.7 °C 1016.5 hPa West 15.6 km/h 19.3 km/h 88% 0 mm 0 W/m2
05:34 6.5 °C 4.7 °C 1016.5 hPa West 14.6 km/h 19.3 km/h 88% 0 mm 0 W/m2
05:39 6.5 °C 4.7 °C 1016.5 hPa WSW 15 km/h 22.5 km/h 88% 0 mm 0 W/m2
05:44 6.5 °C 4.7 °C 1016.8 hPa West 13.2 km/h 19.3 km/h 88% 0 mm 0 W/m2
05:49 6.5 °C 4.7 °C 1016.8 hPa WSW 9.8 km/h 12.9 km/h 88% 0 mm 0 W/m2
05:54 6.4 °C 4.6 °C 1016.8 hPa WSW 12.6 km/h 10.8 km/h 88% 0 mm 0 W/m2
05:59 6.4 °C 4.6 °C 1016.8 hPa WSW 8 km/h 16.1 km/h 88% 0 mm 0 W/m2
06:04 6.4 °C 4.6 °C 1016.8 hPa WSW 6.6 km/h 9.7 km/h 88% 0 mm 0 W/m2
06:09 6.3 °C 4.6 °C 1016.8 hPa WNW 5.1 km/h 9.7 km/h 88.6% 0 mm 0 W/m2
06:14 6.2 °C 4.5 °C 1016.8 hPa West 8.7 km/h 10.5 km/h 89% 0 mm 0 W/m2
06:19 6.2 °C 4.5 °C 1017.2 hPa WSW 13.5 km/h 16.1 km/h 89% 0 mm 0 W/m2
06:24 6.2 °C 4.4 °C 1017.2 hPa West 14 km/h 14.5 km/h 88.8% 0 mm 0 W/m2
06:29 6.3 °C 4.4 °C 1017.2 hPa WSW 15.8 km/h 22.5 km/h 88% 0 mm 1 W/m2
06:34 6.3 °C 4.4 °C 1017.2 hPa WSW 12.2 km/h 22.5 km/h 88% 0 mm 2 W/m2
06:39 6.3 °C 4.4 °C 1017.5 hPa WSW 15.8 km/h 14.5 km/h 88% 0 mm 4 W/m2
06:44 6.3 °C 4.4 °C 1017.5 hPa WSW 16.1 km/h 19.3 km/h 88% 0 mm 7 W/m2
06:49 6.3 °C 4.4 °C 1017.5 hPa WSW 10 km/h 17.7 km/h 88% 0 mm 10 W/m2
06:54 6.3 °C 4.4 °C 1017.5 hPa West 12.1 km/h 16.1 km/h 88% 0 mm 13 W/m2
06:59 6.3 °C 4.4 °C 1017.8 hPa West 7.1 km/h 16.1 km/h 88% 0 mm 24 W/m2
07:04 6.3 °C 4.4 °C 1017.8 hPa West 7.6 km/h 9.7 km/h 88% 0 mm 30 W/m2
07:09 6.3 °C 4.4 °C 1017.8 hPa WSW 10.8 km/h 9 km/h 88% 0 mm 38 W/m2
07:14 6.3 °C 4.6 °C 1017.8 hPa West 12.4 km/h 12.9 km/h 88.5% 0 mm 46 W/m2
07:19 6.4 °C 4.6 °C 1017.8 hPa WSW 13.4 km/h 12.9 km/h 88.2% 0 mm 63 W/m2
07:24 6.5 °C 4.7 °C 1017.8 hPa West 16.3 km/h 14.5 km/h 88% 0 mm 61 W/m2
07:29 6.6 °C 4.8 °C 1017.8 hPa West 11.4 km/h 19.3 km/h 88.5% 0 mm 59 W/m2
07:34 6.7 °C 4.8 °C 1017.8 hPa West 13.5 km/h 12.9 km/h 88.4% 0 mm 74 W/m2
07:39 6.8 °C 4.9 °C 1017.8 hPa West 15.4 km/h 16.1 km/h 88% 0 mm 64 W/m2
07:44 6.7 °C 4.8 °C 1018.2 hPa West 12.6 km/h 17.7 km/h 88% 0 mm 88 W/m2
07:49 6.8 °C 4.9 °C 1018.2 hPa West 11.1 km/h 12.9 km/h 88% 0 mm 105 W/m2
07:54 6.8 °C 4.9 °C 1018.2 hPa West 13.4 km/h 12.9 km/h 88% 0 mm 109 W/m2
07:59 6.9 °C 5.1 °C 1018.2 hPa WSW 8.7 km/h 14.5 km/h 88% 0 mm 182 W/m2
08:04 7.3 °C 5.3 °C 1018.2 hPa WSW 8.7 km/h 8 km/h 87.1% 0 mm 188 W/m2
08:09 7.4 °C 5.3 °C 1018.5 hPa WSW 11.6 km/h 11.3 km/h 86% 0 mm 201 W/m2
08:14 7.6 °C 5.2 °C 1018.5 hPa WSW 12.6 km/h 12.9 km/h 85.3% 0 mm 224 W/m2
08:19 7.7 °C 5.3 °C 1018.5 hPa WSW 11.1 km/h 14.5 km/h 85% 0 mm 216 W/m2
08:24 8 °C 5.6 °C 1018.5 hPa WSW 11.3 km/h 11.3 km/h 85% 0 mm 237 W/m2
08:29 8.2 °C 5.7 °C 1018.5 hPa West 13.4 km/h 14.5 km/h 83.9% 0 mm 206 W/m2
08:34 8.1 °C 5.4 °C 1018.5 hPa WSW 15.3 km/h 14.5 km/h 83% 0 mm 193 W/m2
08:39 7.7 °C 5.1 °C 1018.5 hPa WSW 10.3 km/h 19.3 km/h 83.1% 0 mm 180 W/m2
08:44 7.4 °C 4.9 °C 1018.8 hPa WSW 11.6 km/h 11.3 km/h 83.5% 0 mm 232 W/m2
08:49 7.4 °C 4.9 °C 1018.8 hPa WSW 13.4 km/h 14.5 km/h 84% 0 mm 211 W/m2
08:54 7.6 °C 5 °C 1018.8 hPa WSW 10.3 km/h 14.5 km/h 84% 0 mm 238 W/m2
08:59 7.6 °C 5.1 °C 1018.5 hPa West 10.1 km/h 12.9 km/h 84% 0 mm 69 W/m2
09:04 7.4 °C 4.8 °C 1018.8 hPa West 16.4 km/h 14.5 km/h 83.5% 0 mm 87 W/m2
09:09 7.3 °C 4.8 °C 1018.8 hPa WSW 9.7 km/h 19.3 km/h 83.9% 0 mm 174 W/m2
09:14 7.3 °C 4.7 °C 1018.8 hPa West 19 km/h 16.1 km/h 84% 0 mm 174 W/m2
09:19 7.2 °C 4.7 °C 1018.8 hPa West 15 km/h 22.5 km/h 84% 0 mm 134 W/m2
09:24 7.2 °C 4.8 °C 1018.8 hPa West 11.4 km/h 17.7 km/h 84.8% 0 mm 124 W/m2
09:29 7.3 °C 4.8 °C 1018.8 hPa WSW 13.7 km/h 16.1 km/h 84.2% 0 mm 122 W/m2
09:34 7.3 °C 4.8 °C 1018.8 hPa WSW 13.4 km/h 14.5 km/h 84% 0 mm 140 W/m2
09:39 7.3 °C 4.8 °C 1019.2 hPa WSW 17.4 km/h 14.5 km/h 84% 0 mm 140 W/m2
09:44 7.4 °C 4.9 °C 1018.8 hPa WSW 17.2 km/h 20.9 km/h 84% 0 mm 151 W/m2
09:49 7.4 °C 4.9 °C 1019.2 hPa WSW 19.3 km/h 19.3 km/h 84.1% 0 mm 129 W/m2
09:54 7.4 °C 5.1 °C 1019.2 hPa WSW 18.3 km/h 24.1 km/h 84.9% 0 mm 133 W/m2
09:59 7.5 °C 5.1 °C 1019.2 hPa WSW 18.2 km/h 19.3 km/h 84.8% 0 mm 153 W/m2
10:04 7.6 °C 5.2 °C 1019.2 hPa WSW 15.4 km/h 20.9 km/h 84.8% 0 mm 148 W/m2
10:09 7.6 °C 5.2 °C 1019.2 hPa WSW 16.1 km/h 19.3 km/h 85% 0 mm 125 W/m2
10:14 7.6 °C 5.2 °C 1019.2 hPa WSW 14.2 km/h 20.9 km/h 85% 0 mm 176 W/m2
10:19 7.7 °C 5.3 °C 1019.2 hPa WSW 15.6 km/h 20.9 km/h 85% 0 mm 188 W/m2
10:24 7.8 °C 5.4 °C 1019.2 hPa WSW 19 km/h 19.3 km/h 85% 0 mm 188 W/m2
10:29 7.8 °C 5.5 °C 1019.2 hPa WSW 18.5 km/h 20.9 km/h 85% 0 mm 198 W/m2
10:34 7.9 °C 5.6 °C 1019.2 hPa WSW 20.3 km/h 19.3 km/h 85% 0 mm 172 W/m2
10:39 7.9 °C 5.4 °C 1019.2 hPa WSW 20.4 km/h 22.5 km/h 84.3% 0 mm 178 W/m2
10:44 7.8 °C 5.4 °C 1019.2 hPa WSW 24.5 km/h 24.1 km/h 84.3% 0 mm 169 W/m2
10:49 7.8 °C 5.3 °C 1019.2 hPa WSW 25.4 km/h 27.4 km/h 84.1% 0 mm 166 W/m2
10:54 7.8 °C 5.4 °C 1019.2 hPa WSW 23.5 km/h 29 km/h 84.7% 0 mm 237 W/m2
10:59 7.9 °C 5.6 °C 1019.2 hPa WSW 22 km/h 27.4 km/h 85% 0 mm 470 W/m2
11:04 8.1 °C 5.7 °C 1019.2 hPa WSW 20.8 km/h 22.5 km/h 84.8% 0 mm 333 W/m2
11:09 8.1 °C 5.5 °C 1019.2 hPa WSW 21.6 km/h 22.5 km/h 84.1% 0 mm 148 W/m2
11:14 7.9 °C 5.4 °C 1019.2 hPa WSW 25.9 km/h 29 km/h 84% 0 mm 160 W/m2
11:19 7.9 °C 5.4 °C 1019.2 hPa WSW 19.6 km/h 32.2 km/h 84.4% 0 mm 220 W/m2
11:24 7.9 °C 5.5 °C 1019.2 hPa WSW 22 km/h 22.5 km/h 84.5% 0 mm 189 W/m2
11:29 7.9 °C 5.6 °C 1019.2 hPa WSW 20.4 km/h 25.7 km/h 84.8% 0 mm 156 W/m2
11:34 7.9 °C 5.6 °C 1019.2 hPa WSW 21.4 km/h 24.1 km/h 84.9% 0 mm 111 W/m2
11:39 7.8 °C 5.4 °C 1019.2 hPa WSW 21.4 km/h 24.1 km/h 85% 0 mm 93 W/m2
11:44 7.7 °C 5.4 °C 1019.5 hPa WSW 16.9 km/h 27.4 km/h 85.2% 0 mm 96 W/m2
11:49 7.7 °C 5.4 °C 1019.5 hPa WSW 18.3 km/h 20.9 km/h 85.8% 0 mm 111 W/m2
11:54 7.7 °C 5.5 °C 1019.2 hPa WSW 15.6 km/h 20.9 km/h 86% 0 mm 113 W/m2
11:59 7.7 °C 5.4 °C 1019.2 hPa WSW 17.5 km/h 19.3 km/h 86% 0 mm 88 W/m2
12:04 7.6 °C 5.4 °C 1019.2 hPa West 17.5 km/h 19.3 km/h 86% 0 mm 97 W/m2
12:09 7.6 °C 5.4 °C 1019.2 hPa West 15.3 km/h 20.9 km/h 86% 0 mm 157 W/m2
12:14 7.6 °C 5.4 °C 1019.2 hPa West 17.7 km/h 20.9 km/h 86% 0 mm 338 W/m2
12:19 7.8 °C 5.6 °C 1019.2 hPa West 16.3 km/h 19.3 km/h 86% 0 mm 338 W/m2
12:24 7.8 °C 5.6 °C 1019.2 hPa West 16.3 km/h 17.7 km/h 86% 0 mm 135 W/m2
12:29 7.7 °C 5.5 °C 1019.2 hPa WSW 14.6 km/h 17.7 km/h 86% 0 mm 210 W/m2
12:34 7.8 °C 5.6 °C 1019.2 hPa WSW 13 km/h 17.7 km/h 86% 0 mm 323 W/m2
12:39 7.9 °C 5.7 °C 1019.2 hPa WSW 13.4 km/h 14.5 km/h 86% 0 mm 145 W/m2
12:44 7.9 °C 5.7 °C 1019.2 hPa WSW 15.3 km/h 14.5 km/h 86% 0 mm 149 W/m2
12:49 7.9 °C 5.7 °C 1019.2 hPa WSW 15 km/h 17.7 km/h 85.5% 0 mm 137 W/m2
12:54 7.9 °C 5.6 °C 1019.2 hPa WSW 17.9 km/h 19.3 km/h 85% 0 mm 126 W/m2
12:59 7.8 °C 5.4 °C 1019.2 hPa WSW 17.7 km/h 19.3 km/h 85% 0 mm 115 W/m2
13:04 7.8 °C 5.4 °C 1019.2 hPa WSW 17.7 km/h 19.3 km/h 85% 0 mm 213 W/m2
13:09 7.9 °C 5.6 °C 1018.8 hPa WSW 17.5 km/h 19.3 km/h 85% 0 mm 369 W/m2
13:14 8.3 °C 5.9 °C 1018.8 hPa WSW 18.8 km/h 19.3 km/h 84.5% 0 mm 371 W/m2
13:19 8.7 °C 6 °C 1018.8 hPa WSW 20.3 km/h 22.5 km/h 83.4% 0 mm 325 W/m2
13:24 8.8 °C 6.1 °C 1018.8 hPa WSW 17.5 km/h 20.9 km/h 83.4% 0 mm 394 W/m2
13:29 8.9 °C 6.2 °C 1018.8 hPa WSW 13.5 km/h 19.3 km/h 83% 0 mm 423 W/m2
13:34 9.2 °C 6.2 °C 1018.8 hPa WSW 15.9 km/h 19.3 km/h 81.3% 0 mm 429 W/m2
13:39 9.3 °C 6.2 °C 1018.8 hPa WSW 17.2 km/h 17.7 km/h 80.8% 0 mm 380 W/m2
13:44 9.6 °C 6.4 °C 1018.8 hPa WSW 16.1 km/h 19.3 km/h 80.4% 0 mm 389 W/m2
13:49 9.7 °C 6.4 °C 1018.8 hPa West 16.3 km/h 19.3 km/h 80% 0 mm 325 W/m2
13:54 9.8 °C 6.5 °C 1018.8 hPa West 18.2 km/h 16.1 km/h 80% 0 mm 304 W/m2
13:59 9.9 °C 6.6 °C 1018.8 hPa West 12.1 km/h 20.9 km/h 80% 0 mm 294 W/m2
14:04 10 °C 6.6 °C 1018.8 hPa West 13.5 km/h 14.5 km/h 79.5% 0 mm 249 W/m2
14:09 9.9 °C 6.4 °C 1018.8 hPa WSW 15.6 km/h 14.5 km/h 78.8% 0 mm 232 W/m2
14:14 9.8 °C 6.5 °C 1018.8 hPa WSW 8.7 km/h 19.3 km/h 79.6% 0 mm 260 W/m2
14:19 10.1 °C 6.6 °C 1018.8 hPa WSW 14.8 km/h 10.1 km/h 79.2% 0 mm 245 W/m2
14:24 9.9 °C 6.4 °C 1018.8 hPa WSW 17.5 km/h 16.1 km/h 78.8% 0 mm 224 W/m2
14:29 9.8 °C 6.4 °C 1018.8 hPa WSW 13 km/h 19.3 km/h 79.3% 0 mm 192 W/m2
14:34 9.8 °C 6.4 °C 1018.8 hPa WSW 15 km/h 14.5 km/h 79.2% 0 mm 192 W/m2
14:39 9.8 °C 6.3 °C 1018.8 hPa WSW 14.2 km/h 16.1 km/h 79% 0 mm 186 W/m2
14:44 9.7 °C 6.2 °C 1018.8 hPa WSW 17.7 km/h 14.5 km/h 79% 0 mm 137 W/m2
14:49 9.5 °C 6.1 °C 1018.8 hPa WSW 19.3 km/h 22.5 km/h 79% 0 mm 81 W/m2
14:54 9.2 °C 5.8 °C 1018.8 hPa WSW 15.3 km/h 24.1 km/h 79.2% 0 mm 94 W/m2
14:59 9.1 °C 5.7 °C 1018.8 hPa WSW 14.5 km/h 12.9 km/h 79.8% 0 mm 97 W/m2
15:04 9 °C 5.7 °C 1018.8 hPa WSW 11.1 km/h 17.7 km/h 80% 0 mm 88 W/m2
15:09 9 °C 5.8 °C 1018.8 hPa WSW 10.8 km/h 12.9 km/h 80.3% 0 mm 80 W/m2
15:14 9 °C 5.9 °C 1019.2 hPa WSW 9.2 km/h 11.3 km/h 81% 0 mm 74 W/m2
15:19 9.1 °C 5.9 °C 1019.2 hPa WSW 10.9 km/h 11.3 km/h 81% 0 mm 59 W/m2
15:24 8.9 °C 5.8 °C 1019.2 hPa West 7.2 km/h 11.3 km/h 81% 0 mm 59 W/m2
15:29 8.9 °C 5.8 °C 1019.2 hPa West 9.3 km/h 12.9 km/h 81% 0 mm 41 W/m2
15:34 8.7 °C 5.6 °C 1019.2 hPa WSW 9.3 km/h 11.3 km/h 81% 0 mm 34 W/m2
15:39 8.6 °C 5.8 °C 1019.2 hPa WSW 12.4 km/h 11.3 km/h 82.6% 0 mm 24 W/m2
15:44 8.3 °C 5.6 °C 1019.2 hPa WSW 13.2 km/h 14.5 km/h 83% 0 mm 19 W/m2
15:49 8.2 °C 5.5 °C 1019.2 hPa WSW 16.6 km/h 14.5 km/h 83% 0 mm 14 W/m2
15:54 8.1 °C 5.4 °C 1019.2 hPa West 17.9 km/h 19.3 km/h 83.5% 0 mm 11 W/m2
15:59 7.9 °C 5.4 °C 1019.2 hPa West 10.8 km/h 22.5 km/h 84% 0 mm 8 W/m2
16:04 7.8 °C 5.3 °C 1019.2 hPa West 7.4 km/h 12.9 km/h 84% 0 mm 4 W/m2
16:09 7.7 °C 5.2 °C 1019.2 hPa West 9.2 km/h 11.3 km/h 84.7% 0 mm 2 W/m2
16:14 7.6 °C 5.2 °C 1019.2 hPa NW 8.5 km/h 11.3 km/h 85% 0 mm 1 W/m2
16:19 7.4 °C 5.1 °C 1019.2 hPa North 8.9 km/h 9.7 km/h 85% 0 mm 0 W/m2
16:24 7.4 °C 5.1 °C 1019.2 hPa NNE 9.7 km/h 11.3 km/h 85% 0 mm 0 W/m2
16:29 7.3 °C 5.1 °C 1019.2 hPa NE 8.5 km/h 11.3 km/h 85.8% 0 mm 0 W/m2
16:34 7.2 °C 5 °C 1019.2 hPa NNE 8.7 km/h 9.7 km/h 86% 0 mm 0 W/m2
16:39 7.2 °C 5 °C 1019.5 hPa North 5.8 km/h 9.7 km/h 86% 0 mm 0 W/m2
16:44 7.1 °C 4.9 °C 1019.5 hPa NNE 4.2 km/h 4.8 km/h 86% 0 mm 0 W/m2
16:49 7 °C 4.8 °C 1019.5 hPa NNE 5.1 km/h 4.8 km/h 86% 0 mm 0 W/m2
16:54 6.8 °C 4.9 °C 1019.5 hPa NE 6 km/h 8 km/h 87.6% 0 mm 0 W/m2
16:59 6.7 °C 4.8 °C 1019.5 hPa NNE 9.7 km/h 8 km/h 88% 0 mm 0 W/m2
17:04 6.7 °C 4.8 °C 1019.5 hPa WNW 12.9 km/h 16.1 km/h 88% 0 mm 0 W/m2
17:09 6.7 °C 4.8 °C 1019.5 hPa West 10 km/h 16.1 km/h 88% 0 mm 0 W/m2
17:14 6.7 °C 4.8 °C 1019.5 hPa West 8.9 km/h 11.3 km/h 88% 0 mm 0 W/m2
17:19 6.6 °C 4.7 °C 1019.5 hPa WSW 8.5 km/h 9.7 km/h 88.1% 0 mm 0 W/m2
17:24 6.5 °C 4.7 °C 1019.5 hPa West 11.9 km/h 12.9 km/h 88.5% 0 mm 0 W/m2
17:29 6.4 °C 4.7 °C 1019.5 hPa NW 5 km/h 12.9 km/h 88.6% 0 mm 0 W/m2
17:34 6.4 °C 4.8 °C 1019.5 hPa North 5.8 km/h 5 km/h 89% 0 mm 0 W/m2
17:39 6.3 °C 4.7 °C 1019.5 hPa NNE 5.5 km/h 8 km/h 89% 0 mm 0 W/m2
17:44 6.2 °C 4.5 °C 1019.5 hPa NE 5.8 km/h 6.4 km/h 89% 0 mm 0 W/m2
17:49 6.1 °C 4.4 °C 1019.5 hPa NE 6.3 km/h 8 km/h 89% 0 mm 0 W/m2
17:54 6.1 °C 4.4 °C 1019.5 hPa NE 5.8 km/h 8 km/h 89% 0 mm 0 W/m2
17:59 6 °C 4.4 °C 1019.9 hPa NNE 6.6 km/h 8 km/h 89.2% 0 mm 0 W/m2
18:04 5.9 °C 4.3 °C 1019.9 hPa NNE 3.4 km/h 8 km/h 89.2% 0 mm 0 W/m2
18:09 5.7 °C 4.2 °C 1019.9 hPa NNW 3.7 km/h 3.2 km/h 89.9% 0 mm 0 W/m2
18:14 5.6 °C 4.1 °C 1019.9 hPa NNE 2.9 km/h 3.2 km/h 90% 0 mm 0 W/m2
18:19 5.4 °C 3.9 °C 1019.9 hPa NNE 2.3 km/h 3.2 km/h 90% 0 mm 0 W/m2
18:24 5.2 °C 3.7 °C 1019.9 hPa WSW 4.7 km/h 3.5 km/h 90% 0 mm 0 W/m2
18:29 4.9 °C 3.6 °C 1019.9 hPa SSW 6.4 km/h 6.4 km/h 90.7% 0 mm 0 W/m2
18:34 4.7 °C 3.4 °C 1019.9 hPa SSW 4.5 km/h 8 km/h 91% 0 mm 0 W/m2
18:39 4.6 °C 3.2 °C 1019.9 hPa SSW 3.5 km/h 4.8 km/h 91% 0 mm 0 W/m2
18:44 4.4 °C 3.1 °C 1019.9 hPa WSW 4 km/h 3.2 km/h 91% 0 mm 0 W/m2
18:49 4.3 °C 3.2 °C 1019.9 hPa SW 4.7 km/h 4.8 km/h 92.3% 0 mm 0 W/m2
18:54 4.2 °C 3.1 °C 1019.9 hPa SW 4 km/h 4.8 km/h 93% 0 mm 0 W/m2
18:59 4 °C 2.9 °C 1019.9 hPa WSW 3.7 km/h 4.8 km/h 93% 0 mm 0 W/m2
19:04 3.9 °C 2.8 °C 1019.9 hPa West 6 km/h 5.5 km/h 93% 0 mm 0 W/m2
19:09 3.8 °C 2.9 °C 1019.9 hPa WSW 6 km/h 8 km/h 93.7% 0 mm 0 W/m2
19:14 3.8 °C 2.9 °C 1019.9 hPa WSW 4.3 km/h 8 km/h 94% 0 mm 0 W/m2
19:19 3.8 °C 2.9 °C 1019.9 hPa West 6.8 km/h 7.6 km/h 94% 0 mm 0 W/m2
19:24 3.7 °C 2.8 °C 1019.9 hPa NE 6.9 km/h 9.7 km/h 94% 0 mm 0 W/m2
19:29 3.6 °C 2.8 °C 1019.9 hPa North 4.2 km/h 9.7 km/h 94.3% 0 mm 0 W/m2
19:34 3.4 °C 2.7 °C 1019.9 hPa West 3.4 km/h 6.4 km/h 95% 0 mm 0 W/m2
19:39 3.3 °C 2.6 °C 1020.2 hPa SSW 3.7 km/h 4.8 km/h 95% 0 mm 0 W/m2
19:44 3.3 °C 2.6 °C 1020.2 hPa ESE 5.1 km/h 4.8 km/h 95% 0 mm 0 W/m2
19:49 3.3 °C 2.6 °C 1020.2 hPa SE 4 km/h 8 km/h 95% 0 mm 0 W/m2
19:54 3.2 °C 2.5 °C 1020.2 hPa South 3.1 km/h 4.8 km/h 95% 0 mm 0 W/m2
19:59 3.1 °C 2.4 °C 1019.9 hPa WNW 5.3 km/h 4.8 km/h 95% 0 mm 0 W/m2
20:04 2.9 °C 2.3 °C 1020.2 hPa WSW 6 km/h 6.4 km/h 95% 0 mm 0 W/m2
20:09 2.8 °C 2.2 °C 1020.2 hPa WSW 6 km/h 8 km/h 95.3% 0 mm 0 W/m2
20:14 2.8 °C 2.2 °C 1020.2 hPa WSW 4.7 km/h 8 km/h 96% 0 mm 0 W/m2
20:19 2.7 °C 2.2 °C 1020.2 hPa SSW 5 km/h 6.4 km/h 96% 0 mm 0 W/m2
20:24 2.6 °C 1.9 °C 1020.2 hPa SSE 6.9 km/h 6.4 km/h 96% 0 mm 0 W/m2
20:29 2.4 °C 1.8 °C 1020.2 hPa SSE 7.6 km/h 8 km/h 96% 0 mm 0 W/m2
20:34 2.3 °C 1.7 °C 1020.2 hPa WSW 6 km/h 9.7 km/h 96% 0 mm 0 W/m2
20:39 2.2 °C 1.7 °C 1020.2 hPa WNW 6.4 km/h 9.7 km/h 96.5% 0 mm 0 W/m2
20:44 2.1 °C 1.7 °C 1020.2 hPa West 5.6 km/h 8 km/h 97.4% 0 mm 0 W/m2
20:49 1.8 °C 1.4 °C 1020.5 hPa WSW 3.7 km/h 8 km/h 97.6% 0 mm 0 W/m2
20:54 1.6 °C 1.3 °C 1020.5 hPa South 3.2 km/h 4.8 km/h 98% 0 mm 0 W/m2
20:59 1.5 °C 1.3 °C 1020.5 hPa ENE 3.9 km/h 3.2 km/h 98.9% 0 mm 0 W/m2
21:04 1.5 °C 1.3 °C 1020.5 hPa North 3.1 km/h 4.8 km/h 99% 0 mm 0 W/m2
21:09 1.4 °C 1.3 °C 1020.5 hPa WNW 4 km/h 3.2 km/h 99% 0 mm 0 W/m2
21:14 1.4 °C 1.3 °C 1020.5 hPa WSW 5.1 km/h 4.8 km/h 99% 0 mm 0 W/m2
21:19 1.4 °C 1.3 °C 1020.5 hPa WSW 5 km/h 4.8 km/h 99% 0 mm 0 W/m2
21:24 1.4 °C 1.3 °C 1020.5 hPa WSW 2.7 km/h 4.8 km/h 99% 0 mm 0 W/m2
21:29 1.4 °C 1.3 °C 1020.5 hPa NW 3.4 km/h 3.2 km/h 99% 0 mm 0 W/m2
21:34 1.3 °C 1.2 °C 1020.5 hPa North 1.6 km/h 3.2 km/h 99% 0 mm 0 W/m2
21:39 1.3 °C 1.2 °C 1020.5 hPa NW 3.5 km/h 3.2 km/h 99% 0 mm 0 W/m2
21:44 1.3 °C 1.2 °C 1020.9 hPa WNW 3.1 km/h 3.2 km/h 99% 0 mm 0 W/m2
21:49 1.3 °C 1.2 °C 1020.9 hPa WNW 4 km/h 3.5 km/h 99% 0 mm 0 W/m2
21:54 1.2 °C 1.1 °C 1020.9 hPa WNW 4.3 km/h 4.8 km/h 99% 0 mm 0 W/m2
21:59 1.2 °C 1.1 °C 1020.9 hPa West 5 km/h 4.8 km/h 99% 0 mm 0 W/m2
22:04 1.2 °C 1.1 °C 1021.2 hPa WSW 5.1 km/h 4.8 km/h 99% 0 mm 0 W/m2
22:09 1.2 °C 1.1 °C 1021.2 hPa SW 4.5 km/h 6.4 km/h 99% 0 mm 0 W/m2
22:14 1.3 °C 1.2 °C 1021.2 hPa South 6.9 km/h 7.2 km/h 99% 0 mm 0 W/m2
22:19 1.4 °C 1.3 °C 1021.2 hPa SSE 9.5 km/h 12.9 km/h 99% 0 mm 0 W/m2
22:24 1.4 °C 1.3 °C 1021.2 hPa South 6.6 km/h 12.9 km/h 99% 0 mm 0 W/m2
22:29 1.3 °C 1.2 °C 1021.2 hPa WSW 3.9 km/h 8 km/h 99% 0 mm 0 W/m2
22:34 1.3 °C 1.2 °C 1021.2 hPa West 2.1 km/h 3.2 km/h 99% 0 mm 0 W/m2
22:39 1.3 °C 1.2 °C 1021.2 hPa NNW 3.5 km/h 4.8 km/h 99% 0 mm 0 W/m2
22:44 1.3 °C 1.2 °C 1021.2 hPa NE 5.8 km/h 6.1 km/h 99% 0 mm 0 W/m2
22:49 1.4 °C 1.3 °C 1021.2 hPa East 9.8 km/h 9.7 km/h 99% 0 mm 0 W/m2
22:54 1.7 °C 1.6 °C 1021.2 hPa ESE 5.5 km/h 11.3 km/h 99% 0 mm 0 W/m2
22:59 1.8 °C 1.6 °C 1021.2 hPa ESE 4.3 km/h 4.8 km/h 99% 0 mm 0 W/m2
23:04 1.6 °C 1.4 °C 1021.2 hPa SSE 3.2 km/h 4.8 km/h 99% 0 mm 0 W/m2
23:09 1.4 °C 1.3 °C 1021.2 hPa South 5.1 km/h 4.8 km/h 99% 0 mm 0 W/m2
23:14 1.3 °C 1.2 °C 1021.6 hPa ESE 4.2 km/h 4.8 km/h 99% 0 mm 0 W/m2
23:19 1.2 °C 1.1 °C 1021.6 hPa ESE 4.2 km/h 6.4 km/h 99% 0 mm 0 W/m2
23:24 1.2 °C 1 °C 1021.6 hPa East 3.4 km/h 4.8 km/h 99% 0 mm 0 W/m2
23:29 1.1 °C 0.9 °C 1021.6 hPa ENE 2.6 km/h 4.8 km/h 99% 0 mm 0 W/m2
23:34 1.2 °C 1 °C 1021.6 hPa NE 3.4 km/h 3.2 km/h 99% 0 mm 0 W/m2
23:39 1.1 °C 0.9 °C 1021.6 hPa NE 5.6 km/h 6.1 km/h 99% 0 mm 0 W/m2
23:44 1.1 °C 0.9 °C 1021.6 hPa ENE 6.1 km/h 9.7 km/h 99% 0 mm 0 W/m2
23:49 1 °C 0.8 °C 1021.6 hPa ENE 5.3 km/h 6.4 km/h 99% 0 mm 0 W/m2
23:54 1 °C 0.8 °C 1021.6 hPa NE 4 km/h 8 km/h 99% 0 mm 0 W/m2
23:59 0.9 °C 0.7 °C 1021.6 hPa NE 3.7 km/h 4.8 km/h 99% 0 mm 0 W/m2
Knjazevac, Serbia
Compliments of Weather Underground - 4 mb